| time (UTC) | temp F | wind direction | speed MPH | gust MPH | rain 1hr in | rain 24hr in | rain mn in | humidity % | barometer mb |
| 20260903081412 | 64 | 176 | 0.0 | 0.0 | 0.00 | 0.11 | 0.11 | 95 | 1013.8 |
| 20260903080413 | 64 | 176 | 0.0 | 0.0 | 0.00 | 0.11 | 0.11 | 95 | 1013.8 |
| 20260903075413 | 64 | 176 | 0.0 | 0.0 | 0.00 | 0.11 | 0.11 | 95 | 1013.7 |
| 20260903074411 | 64 | 176 | 0.0 | 0.0 | 0.00 | 0.11 | 0.11 | 95 | 1013.6 |
| 20260903073413 | 63 | 176 | 0.0 | 0.0 | 0.00 | 0.11 | 0.11 | 95 | 1013.8 |
| 20260903072414 | 63 | 176 | 0.0 | 0.0 | 0.01 | 0.11 | 0.11 | 95 | 1014.0 |
| 20260903071406 | 63 | 176 | 0.0 | 0.0 | 0.01 | 0.11 | 0.11 | 95 | 1014.2 |
| 20260903070405 | 63 | 176 | 0.0 | 0.0 | 0.04 | 0.11 | 0.11 | 95 | 1014.0 |
| 20260903065844 | 64 | 176 | 0.0 | 0.0 | 0.07 | 0.11 | 0.11 | 95 | 1014.2 |
| 20260903064406 | 64 | 176 | 0.0 | 0.0 | 0.08 | 0.12 | 0.11 | 94 | 1014.1 |
| 20260903064328 | 64 | 176 | 0.0 | 0.0 | 0.11 | 0.12 | 0.11 | 94 | 1014.3 |
| 20260903062837 | 64 | 176 | 0.0 | 0.0 | 0.10 | 0.11 | 0.10 | 94 | 1014.0 |
| 20260903061405 | 64 | 176 | 0.0 | 0.0 | 0.10 | 0.11 | 0.10 | 93 | 1014.3 |
| 20260903060405 | 64 | 176 | 0.0 | 0.0 | 0.07 | 0.08 | 0.07 | 93 | 1014.7 |
| 20260903055406 | 65 | 176 | 0.0 | 0.0 | 0.04 | 0.05 | 0.04 | 92 | 1015.4 |
| 20260903054838 | 65 | 176 | 0.0 | 0.0 | 0.03 | 0.04 | 0.03 | 92 | 1015.9 |
| 20260903053401 | 65 | 176 | 0.0 | 0.0 | 0.00 | 0.01 | 0.00 | 91 | 1016.2 |
| 20260903052359 | 65 | 176 | 0.0 | 0.0 | 0.00 | 0.01 | 0.00 | 90 | 1016.3 |
| 20260903051359 | 65 | 176 | 0.0 | 0.0 | 0.00 | 0.01 | 0.00 | 89 | 1016.3 |
| 20260903050835 | 65 | 176 | 0.0 | 0.0 | 0.00 | 0.01 | 0.00 | 89 | 1016.5 |
| 20260903045400 | 65 | 176 | 0.0 | 0.0 | 0.00 | 0.01 | 0.00 | 89 | 1016.4 |
| 20260903044401 | 65 | 176 | 0.0 | 0.0 | 0.00 | 0.01 | 0.00 | 88 | 1016.3 |
| 20260903043359 | 65 | 176 | 0.0 | 0.0 | 0.00 | 0.01 | 0.00 | 88 | 1016.6 |
| 20260903042400 | 65 | 176 | 0.0 | 0.0 | 0.00 | 0.01 | 0.00 | 88 | 1016.6 |
| 20260903041355 | 65 | 176 | 0.0 | 0.0 | 0.00 | 0.01 | 0.00 | 88 | 1016.8 |
| 20260903040354 | 65 | 176 | 0.0 | 0.0 | 0.00 | 0.01 | 0.00 | 87 | 1016.6 |
| 20260903035355 | 65 | 176 | 0.0 | 0.0 | 0.00 | 0.01 | 0.01 | 87 | 1016.7 |
| 20260903034355 | 65 | 176 | 0.0 | 0.0 | 0.00 | 0.01 | 0.01 | 87 | 1016.6 |
| 20260903033353 | 65 | 176 | 0.0 | 0.0 | 0.00 | 0.01 | 0.01 | 85 | 1016.4 |
| 20260903032354 | 65 | 176 | 0.0 | 0.0 | 0.00 | 0.01 | 0.01 | 85 | 1016.2 |
| 20260903031837 | 66 | 176 | 0.0 | 0.0 | 0.00 | 0.01 | 0.01 | 84 | 1016.3 |
| 20260903030355 | 66 | 176 | 0.0 | 0.0 | 0.00 | 0.01 | 0.01 | 83 | 1016.7 |
| 20260903025355 | 66 | 176 | 0.0 | 0.0 | 0.00 | 0.01 | 0.01 | 84 | 1017.0 |
| 20260903024348 | 66 | 176 | 0.0 | 0.0 | 0.00 | 0.01 | 0.01 | 84 | 1017.2 |
| 20260903023347 | 66 | 176 | 0.0 | 0.0 | 0.00 | 0.01 | 0.01 | 84 | 1017.4 |
| 20260903022347 | 66 | 176 | 0.0 | 0.0 | 0.00 | 0.01 | 0.01 | 83 | 1017.8 |
| 20260903021347 | 66 | 176 | 0.0 | 1.0 | 0.00 | 0.01 | 0.01 | 82 | 1017.7 |
| 20260903020347 | 66 | 176 | 0.0 | 2.0 | 0.00 | 0.01 | 0.01 | 83 | 1018.0 |
| 20260903015348 | 66 | 176 | 0.0 | 2.0 | 0.00 | 0.01 | 0.01 | 82 | 1018.2 |
| 20260903014349 | 66 | 176 | 0.0 | 2.0 | 0.00 | 0.01 | 0.01 | 83 | 1018.0 |
| 20260903013835 | 66 | 176 | 0.0 | 0.0 | 0.00 | 0.01 | 0.01 | 84 | 1017.7 |
| 20260903012348 | 67 | 176 | 0.0 | 2.0 | 0.00 | 0.01 | 0.01 | 83 | 1017.4 |
| 20260903011342 | 67 | 176 | 0.0 | 1.0 | 0.00 | 0.01 | 0.01 | 84 | 1017.4 |
| 20260903010342 | 67 | 176 | 0.0 | 0.0 | 0.00 | 0.01 | 0.01 | 83 | 1017.3 |
| 20260903005341 | 67 | 176 | 0.0 | 0.0 | 0.00 | 0.01 | 0.01 | 84 | 1017.4 |
| 20260903004342 | 67 | 176 | 0.0 | 0.0 | 0.00 | 0.01 | 0.01 | 83 | 1017.6 |
| 20260903003341 | 67 | 176 | 0.0 | 0.0 | 0.00 | 0.01 | 0.01 | 83 | 1017.8 |
| 20260903002749 | 67 | 176 | 0.0 | 0.0 | 0.00 | 0.01 | 0.01 | 84 | 1017.7 |
| 20260903002424 | 67 | 176 | 0.0 | 0.0 | 0.00 | 0.01 | 0.01 | 84 | 1017.7 |
| 20260903000343 | 67 | 176 | 0.0 | 0.0 | 0.00 | 0.01 | 0.01 | 83 | 1017.6 |
| 20260902235342 | 68 | 176 | 0.0 | 1.0 | 0.00 | 0.01 | 0.01 | 84 | 1017.6 |
| 20260902234336 | 68 | 176 | 0.0 | 1.0 | 0.00 | 0.01 | 0.01 | 82 | 1017.7 |
| 20260902233335 | 68 | 176 | 0.0 | 0.0 | 0.00 | 0.01 | 0.01 | 82 | 1017.7 |
| 20260902233251 | 68 | 176 | 0.0 | 0.0 | 0.00 | 0.01 | 0.01 | 82 | 1018.0 |
| 20260902231336 | 68 | 176 | 0.0 | 0.0 | 0.00 | 0.01 | 0.01 | 81 | 1018.1 |
| 20260902230336 | 69 | 176 | 0.0 | 0.0 | 0.00 | 0.01 | 0.01 | 81 | 1018.3 |
| 20260902230258 | 69 | 176 | 0.0 | 1.0 | 0.00 | 0.01 | 0.01 | 80 | 1018.4 |
| 20260902224335 | 69 | 176 | 0.0 | 1.0 | 0.00 | 0.01 | 0.01 | 79 | 1018.6 |
| 20260902223816 | 69 | 176 | 0.0 | 4.0 | 0.00 | 0.01 | 0.01 | 80 | 1018.7 |
| 20260902222337 | 69 | 176 | 0.0 | 3.0 | 0.00 | 0.02 | 0.01 | 80 | 1018.6 |
| 20260902221330 | 69 | 176 | 0.0 | 2.0 | 0.00 | 0.02 | 0.01 | 80 | 1018.7 |
| 20260902220731 | 69 | 176 | 0.0 | 0.0 | 0.00 | 0.02 | 0.01 | 81 | 1018.8 |
| 20260902220407 | 69 | 176 | 0.0 | 3.0 | 0.00 | 0.02 | 0.01 | 80 | 1018.7 |
| 20260902214330 | 69 | 176 | 0.0 | 0.0 | 0.00 | 0.03 | 0.01 | 79 | 1018.8 |
| 20260902213328 | 69 | 176 | 0.0 | 0.0 | 0.00 | 0.03 | 0.01 | 80 | 1018.5 |
| 20260902212330 | 70 | 176 | 0.0 | 0.0 | 0.00 | 0.04 | 0.01 | 79 | 1018.4 |
| 20260902211331 | 70 | 176 | 0.0 | 0.0 | 0.00 | 0.05 | 0.01 | 79 | 1018.3 |
| 20260902210329 | 70 | 176 | 0.0 | 1.0 | 0.00 | 0.05 | 0.01 | 76 | 1018.1 |
| 20260902205326 | 70 | 176 | 0.0 | 3.0 | 0.00 | 0.05 | 0.01 | 77 | 1017.8 |
| 20260902204326 | 70 | 176 | 0.0 | 3.0 | 0.00 | 0.06 | 0.01 | 77 | 1018.0 |
| 20260902203327 | 70 | 176 | 0.0 | 1.0 | 0.00 | 0.07 | 0.01 | 78 | 1017.9 |
| 20260902202328 | 70 | 176 | 0.0 | 0.0 | 0.00 | 0.07 | 0.01 | 79 | 1018.0 |
| 20260902201328 | 70 | 176 | 0.0 | 4.0 | 0.00 | 0.09 | 0.01 | 76 | 1018.5 |
| 20260902200326 | 70 | 176 | 0.0 | 2.0 | 0.00 | 0.09 | 0.01 | 80 | 1018.5 |
| 20260902195816 | 70 | 176 | 0.0 | 0.0 | 0.00 | 0.09 | 0.01 | 81 | 1018.5 |
| 20260902194328 | 70 | 176 | 0.0 | 0.0 | 0.00 | 0.10 | 0.01 | 82 | 1018.7 |
| 20260902193322 | 71 | 176 | 0.0 | 0.0 | 0.00 | 0.12 | 0.01 | 79 | 1018.8 |
| 20260902192320 | 71 | 176 | 0.0 | 0.0 | 0.00 | 0.14 | 0.01 | 79 | 1018.7 |
| 20260902191322 | 71 | 176 | 0.0 | 0.0 | 0.00 | 0.14 | 0.01 | 78 | 1019.0 |
| 20260902190323 | 71 | 176 | 0.0 | 1.0 | 0.00 | 0.14 | 0.01 | 75 | 1019.0 |
| 20260902185321 | 72 | 176 | 0.0 | 3.0 | 0.00 | 0.14 | 0.01 | 75 | 1018.7 |
| 20260902184320 | 72 | 176 | 0.0 | 3.0 | 0.00 | 0.15 | 0.01 | 75 | 1018.9 |
| 20260902183322 | 72 | 176 | 0.0 | 3.0 | 0.00 | 0.15 | 0.01 | 76 | 1018.6 |
| 20260902182322 | 72 | 176 | 0.0 | 0.0 | 0.00 | 0.15 | 0.01 | 79 | 1018.8 |
| 20260902181322 | 72 | 176 | 0.0 | 5.0 | 0.00 | 0.15 | 0.01 | 76 | 1018.7 |
| 20260902180315 | 71 | 42 | 0.0 | 0.0 | 0.00 | 0.16 | 0.01 | 81 | 1018.8 |
| 20260902175801 | 71 | 42 | 0.0 | 0.0 | 0.00 | 0.16 | 0.01 | 80 | 1019.0 |
| 20260902174315 | 71 | 42 | 0.0 | 2.0 | 0.00 | 0.16 | 0.01 | 79 | 1019.2 |
| 20260902173315 | 70 | 48 | 0.0 | 1.0 | 0.00 | 0.16 | 0.01 | 80 | 1019.4 |
| 20260902172802 | 70 | 48 | 0.0 | 4.0 | 0.00 | 0.16 | 0.01 | 78 | 1019.3 |
| 20260902171315 | 70 | 60 | 0.0 | 3.0 | 0.00 | 0.16 | 0.01 | 81 | 1019.3 |
| 20260902170314 | 70 | 58 | 0.0 | 4.0 | 0.00 | 0.16 | 0.01 | 82 | 1019.3 |
| 20260902165315 | 69 | 53 | 0.0 | 3.0 | 0.00 | 0.16 | 0.01 | 84 | 1019.3 |
| 20260902164315 | 69 | 52 | 0.0 | 3.0 | 0.00 | 0.16 | 0.01 | 86 | 1019.2 |
| 20260902163751 | 69 | 53 | 1.0 | 4.0 | 0.00 | 0.16 | 0.01 | 85 | 1019.2 |
| 20260902162310 | 68 | 49 | 0.0 | 3.0 | 0.00 | 0.16 | 0.01 | 87 | 1019.1 |
| 20260902161308 | 68 | 48 | 1.0 | 4.0 | 0.00 | 0.16 | 0.01 | 87 | 1019.3 |
| 20260902160309 | 68 | 45 | 0.0 | 4.0 | 0.00 | 0.16 | 0.01 | 87 | 1019.5 |
| 20260902155308 | 67 | 39 | 0.0 | 1.0 | 0.00 | 0.16 | 0.01 | 89 | 1019.4 |
| 20260902154308 | 67 | 39 | 0.0 | 2.0 | 0.00 | 0.16 | 0.01 | 87 | 1019.7 |
| 20260902153744 | 67 | 39 | 0.0 | 1.0 | 0.00 | 0.16 | 0.01 | 89 | 1019.8 |
| 20260902152308 | 66 | 39 | 0.0 | 1.0 | 0.00 | 0.16 | 0.01 | 89 | 1020.0 |
| 20260902151309 | 66 | 36 | 0.0 | 3.0 | 0.00 | 0.16 | 0.01 | 89 | 1020.1 |
| 20260902150304 | 66 | 67 | 0.0 | 3.0 | 0.00 | 0.16 | 0.01 | 91 | 1020.1 |
| 20260902145305 | 65 | 67 | 1.0 | 3.0 | 0.00 | 0.16 | 0.01 | 90 | 1020.1 |
| 20260902145225 | 65 | 44 | 1.0 | 4.0 | 0.00 | 0.16 | 0.01 | 92 | 1019.9 |
| 20260902143742 | 65 | 65 | 1.0 | 3.0 | 0.00 | 0.16 | 0.01 | 93 | 1019.9 |
| 20260902142746 | 65 | 67 | 1.0 | 3.0 | 0.00 | 0.16 | 0.01 | 93 | 1020.0 |
| 20260902141302 | 64 | 42 | 0.0 | 3.0 | 0.00 | 0.16 | 0.01 | 95 | 1020.0 |
| 20260902140302 | 64 | 41 | 1.0 | 4.0 | 0.00 | 0.16 | 0.01 | 95 | 1019.8 |
| 20260902135306 | 64 | 69 | 1.0 | 4.0 | 0.00 | 0.16 | 0.01 | 95 | 1019.7 |
| 20260902134304 | 63 | 53 | 1.0 | 4.0 | 0.00 | 0.16 | 0.01 | 96 | 1019.8 |
| 20260902134223 | 63 | 46 | 1.0 | 3.0 | 0.00 | 0.16 | 0.01 | 96 | 1019.8 |
| 20260902132256 | 62 | 40 | 1.0 | 3.0 | 0.00 | 0.16 | 0.01 | 96 | 1019.6 |
| 20260902131256 | 62 | 32 | 1.0 | 3.0 | 0.00 | 0.16 | 0.01 | 96 | 1019.6 |
| 20260902130255 | 62 | 32 | 1.0 | 3.0 | 0.00 | 0.16 | 0.01 | 96 | 1019.6 |
| 20260902125255 | 62 | 32 | 0.0 | 2.0 | 0.00 | 0.17 | 0.01 | 96 | 1019.5 |
| 20260902124256 | 62 | 31 | 1.0 | 4.0 | 0.00 | 0.18 | 0.01 | 96 | 1019.4 |
| 20260902123256 | 62 | 34 | 0.0 | 3.0 | 0.00 | 0.19 | 0.01 | 96 | 1019.5 |
| 20260902122256 | 62 | 34 | 1.0 | 4.0 | 0.00 | 0.20 | 0.01 | 96 | 1019.5 |
| 20260902121741 | 62 | 34 | 1.0 | 3.0 | 0.00 | 0.23 | 0.01 | 96 | 1019.7 |
| 20260902120252 | 61 | 86 | 1.0 | 3.0 | 0.00 | 0.24 | 0.01 | 96 | 1019.7 |
| 20260902115250 | 61 | 45 | 0.0 | 1.0 | 0.00 | 0.24 | 0.01 | 96 | 1019.7 |
| 20260902114250 | 61 | 45 | 0.0 | 2.0 | 0.00 | 0.25 | 0.01 | 96 | 1019.7 |
| 20260902113251 | 61 | 45 | 0.0 | 3.0 | 0.00 | 0.25 | 0.01 | 96 | 1019.8 |
| 20260902112247 | 61 | 43 | 0.0 | 2.0 | 0.00 | 0.25 | 0.01 | 96 | 1019.8 |
| 20260902111728 | 61 | 43 | 1.0 | 2.0 | 0.00 | 0.25 | 0.01 | 96 | 1019.7 |
| 20260902110247 | 61 | 43 | 0.0 | 2.0 | 0.00 | 0.25 | 0.01 | 96 | 1019.5 |
| 20260902105728 | 61 | 36 | 0.0 | 2.0 | 0.00 | 0.25 | 0.01 | 96 | 1019.5 |
| 20260902104247 | 61 | 36 | 1.0 | 3.0 | 0.00 | 0.25 | 0.01 | 96 | 1019.3 |
| 20260902103245 | 61 | 36 | 0.0 | 2.0 | 0.00 | 0.25 | 0.01 | 96 | 1019.5 |
| 20260902102245 | 61 | 36 | 0.0 | 2.0 | 0.00 | 0.25 | 0.01 | 96 | 1019.4 |
| 20260902101247 | 61 | 36 | 0.0 | 2.0 | 0.00 | 0.25 | 0.01 | 96 | 1019.2 |
| 20260902100245 | 61 | 36 | 1.0 | 3.0 | 0.00 | 0.25 | 0.01 | 96 | 1019.2 |
| 20260902095246 | 61 | 34 | 0.0 | 3.0 | 0.00 | 0.25 | 0.01 | 96 | 1019.1 |
| 20260902094247 | 61 | 35 | 1.0 | 3.0 | 0.00 | 0.25 | 0.01 | 96 | 1018.9 |
| 20260902093246 | 61 | 34 | 1.0 | 3.0 | 0.00 | 0.25 | 0.01 | 96 | 1018.7 |
| 20260902092241 | 61 | 55 | 1.0 | 3.0 | 0.00 | 0.25 | 0.01 | 96 | 1018.7 |
| 20260902091239 | 61 | 53 | 0.0 | 3.0 | 0.00 | 0.25 | 0.01 | 96 | 1018.5 |
| 20260902090726 | 61 | 44 | 0.0 | 2.0 | 0.00 | 0.25 | 0.01 | 96 | 1018.4 |
| 20260902085240 | 61 | 44 | 0.0 | 2.0 | 0.00 | 0.25 | 0.01 | 96 | 1018.4 |
| 20260902084239 | 61 | 40 | 0.0 | 2.0 | 0.00 | 0.25 | 0.01 | 96 | 1018.4 |
| 20260902083240 | 61 | 40 | 0.0 | 2.0 | 0.00 | 0.25 | 0.01 | 96 | 1018.5 |
| 20260902082240 | 61 | 40 | 0.0 | 3.0 | 0.00 | 0.25 | 0.01 | 96 | 1018.4 |
| 20260902081712 | 61 | 40 | 0.0 | 3.0 | 0.00 | 0.25 | 0.01 | 96 | 1018.2 |